createdAt,value
2022-08-05T00:02:19.665Z,72.99
2022-08-05T00:04:46.955Z,73.16
2022-08-05T00:07:59.390Z,73.23
2022-08-05T00:10:09.259Z,73.03
2022-08-05T00:12:35.703Z,73.00
2022-08-05T00:15:55.227Z,72.99
2022-08-05T00:18:08.604Z,72.99
2022-08-05T00:20:35.011Z,72.89
2022-08-05T00:23:02.759Z,72.85
2022-08-05T00:25:45.978Z,72.88
2022-08-05T00:28:13.017Z,72.61
2022-08-05T00:30:39.444Z,72.73
2022-08-05T00:34:42.333Z,72.72
2022-08-05T00:36:16.095Z,72.74
2022-08-05T00:38:41.337Z,72.93
2022-08-05T00:41:11.785Z,72.73
2022-08-05T00:43:46.602Z,72.90
2022-08-05T00:46:13.967Z,72.72
2022-08-05T00:48:50.761Z,72.42
2022-08-05T00:51:51.080Z,72.22
2022-08-05T00:54:05.203Z,71.64
2022-08-05T00:56:31.627Z,71.51
2022-08-05T00:58:58.045Z,71.66
2022-08-05T01:01:42.877Z,71.51
2022-08-05T01:04:13.765Z,71.64
2022-08-05T01:06:40.788Z,71.64
2022-08-05T01:09:10.111Z,71.50
2022-08-05T01:11:38.055Z,71.50
2022-08-05T01:14:16.782Z,71.29
2022-08-05T01:17:11.003Z,71.25
2022-08-05T01:20:01.338Z,71.21
2022-08-05T01:22:41.038Z,71.08
2022-08-05T01:25:07.413Z,70.85
2022-08-05T01:27:57.574Z,70.89
2022-08-05T01:30:34.792Z,70.86
2022-08-05T01:33:03.521Z,70.86
2022-08-05T01:35:52.147Z,70.92
2022-08-05T01:38:27.167Z,70.85
2022-08-05T01:40:58.202Z,70.84
2022-08-05T01:43:25.780Z,70.99
2022-08-05T01:45:56.413Z,70.70
2022-08-05T01:48:23.991Z,70.90
2022-08-05T01:50:51.560Z,70.49
2022-08-05T01:53:54.710Z,70.75
2022-08-05T01:56:09.464Z,70.72
2022-08-05T01:58:44.769Z,70.69
2022-08-05T02:01:13.265Z,70.80
2022-08-05T02:03:42.455Z,71.07
2022-08-05T02:06:33.309Z,71.22
2022-08-05T02:08:58.878Z,71.18
2022-08-05T02:11:32.670Z,71.09
2022-08-05T02:14:02.730Z,71.20
2022-08-05T02:16:36.999Z,71.13
2022-08-05T02:19:11.770Z,70.92
2022-08-05T02:21:46.785Z,70.83
2022-08-05T02:24:18.731Z,71.21
2022-08-05T02:26:54.028Z,70.95
2022-08-05T02:29:26.009Z,70.79
2022-08-05T02:32:10.868Z,70.90
2022-08-05T02:34:38.125Z,70.94
2022-08-05T02:37:09.362Z,71.05
2022-08-05T02:39:37.258Z,70.87
2022-08-05T02:42:08.504Z,70.81
2022-08-05T02:44:37.514Z,70.87
2022-08-05T02:47:05.693Z,70.95
2022-08-05T02:49:35.630Z,70.63
2022-08-05T02:52:04.737Z,70.64
2022-08-05T02:54:35.580Z,71.00
2022-08-05T02:57:05.240Z,70.98
2022-08-05T02:59:50.446Z,70.67
2022-08-05T03:02:19.860Z,70.95
2022-08-05T03:04:48.172Z,70.69
2022-08-05T03:07:40.650Z,70.79
2022-08-05T03:10:07.178Z,71.00
2022-08-05T03:12:34.963Z,70.84
2022-08-05T03:15:01.566Z,70.79
2022-08-05T03:17:28.383Z,70.92
2022-08-05T03:19:55.131Z,70.99
2022-08-05T03:22:32.399Z,71.08
2022-08-05T03:25:11.528Z,70.99
2022-08-05T03:27:59.387Z,70.57
2022-08-05T03:30:28.710Z,70.44
2022-08-05T03:33:00.966Z,69.74
2022-08-05T03:35:28.813Z,69.73
2022-08-05T03:37:59.086Z,68.26
2022-08-05T03:40:32.160Z,69.38
2022-08-05T03:43:01.478Z,69.79
2022-08-05T03:45:57.970Z,69.75
2022-08-05T03:48:26.034Z,69.71
2022-08-05T03:52:38.608Z,70.05
2022-08-05T03:55:34.603Z,70.15
2022-08-05T03:56:46.474Z,69.49
2022-08-05T03:59:20.452Z,69.51
2022-08-05T04:01:48.475Z,69.97
2022-08-05T04:04:16.783Z,69.84
2022-08-05T04:06:51.190Z,69.81
2022-08-05T04:09:26.079Z,69.77
2022-08-05T04:11:53.497Z,70.05
2022-08-05T04:14:29.977Z,70.35
2022-08-05T04:16:58.603Z,70.17
2022-08-05T04:19:25.077Z,68.90
2022-08-05T04:22:08.561Z,69.65
2022-08-05T04:24:38.415Z,69.46
2022-08-05T04:27:11.876Z,69.92
2022-08-05T04:29:38.736Z,70.38
2022-08-05T04:32:05.563Z,70.64
2022-08-05T04:34:35.851Z,70.26
2022-08-05T04:37:03.612Z,69.47
2022-08-05T04:39:31.207Z,69.90
2022-08-05T04:41:58.797Z,70.44
2022-08-05T04:44:29.573Z,70.97
2022-08-05T04:46:59.835Z,70.78
2022-08-05T04:50:01.958Z,71.27
2022-08-05T04:52:22.911Z,71.48
2022-08-05T04:54:53.971Z,71.21
2022-08-05T04:57:23.720Z,71.35
2022-08-05T04:59:55.783Z,71.43
2022-08-05T05:02:36.203Z,71.63
2022-08-05T05:05:16.976Z,71.62
2022-08-05T05:07:52.856Z,71.82
2022-08-05T05:10:22.775Z,71.80
2022-08-05T05:12:50.552Z,71.91
2022-08-05T05:15:17.493Z,71.94
2022-08-05T05:18:04.043Z,72.02
2022-08-05T05:20:30.481Z,71.99
2022-08-05T05:22:57.678Z,72.01
2022-08-05T05:25:40.384Z,72.11
2022-08-05T05:28:07.291Z,72.49
2022-08-05T05:30:33.997Z,72.44
2022-08-05T05:33:08.783Z,72.45
2022-08-05T05:35:43.168Z,72.42
2022-08-05T05:38:12.890Z,72.62
2022-08-05T05:40:43.811Z,72.35
2022-08-05T05:43:16.183Z,72.36
2022-08-05T05:45:49.173Z,72.41
2022-08-05T05:48:16.129Z,72.68
2022-08-05T05:50:44.317Z,72.60
2022-08-05T05:53:22.628Z,72.56
2022-08-05T05:55:51.465Z,72.70
2022-08-05T05:58:31.608Z,72.32
2022-08-05T06:01:02.574Z,72.10
2022-08-05T06:03:53.988Z,71.90
2022-08-05T06:06:25.259Z,71.72
2022-08-05T06:08:54.619Z,71.88
2022-08-05T06:11:21.071Z,71.80
2022-08-05T06:13:53.829Z,71.84
2022-08-05T06:16:29.497Z,71.64
2022-08-05T06:18:59.918Z,71.79
2022-08-05T06:21:35.967Z,71.77
2022-08-05T06:24:05.111Z,71.83
2022-08-05T06:26:33.818Z,71.80
2022-08-05T06:29:03.316Z,71.93
2022-08-05T06:31:32.751Z,71.72
2022-08-05T06:34:07.263Z,71.88
2022-08-05T06:36:56.701Z,71.91
2022-08-05T06:39:22.019Z,72.12
2022-08-05T06:41:53.429Z,71.93
2022-08-05T06:44:19.816Z,71.92
2022-08-05T06:46:50.966Z,71.98
2022-08-05T06:49:17.703Z,71.94
2022-08-05T06:51:45.480Z,72.12
2022-08-05T06:54:12.035Z,72.12
2022-08-05T06:56:54.794Z,72.34
2022-08-05T06:59:38.583Z,72.15
2022-08-05T07:02:07.945Z,72.14
2022-08-05T07:04:34.866Z,72.08
2022-08-05T07:07:03.108Z,71.96
2022-08-05T07:09:37.444Z,72.29
2022-08-05T07:12:07.588Z,72.55
2022-08-05T07:14:54.074Z,72.20
2022-08-05T07:17:59.534Z,72.32
2022-08-05T07:22:53.668Z,72.17
2022-08-05T07:25:23.301Z,72.14
2022-08-05T07:28:11.495Z,72.61
2022-08-05T07:30:39.670Z,72.56
2022-08-05T07:33:09.972Z,72.49
2022-08-05T07:36:02.813Z,73.94
2022-08-05T07:38:32.862Z,73.20
2022-08-05T07:42:08.234Z,73.05
2022-08-05T07:43:56.432Z,72.58
2022-08-05T07:46:25.481Z,72.46
2022-08-05T07:49:02.568Z,72.41
2022-08-05T07:51:36.754Z,72.26
2022-08-05T07:54:04.295Z,72.43
2022-08-05T07:57:00.478Z,72.53
2022-08-05T07:59:17.871Z,72.47
2022-08-05T08:01:52.427Z,72.32
2022-08-05T08:04:37.941Z,72.29
2022-08-05T08:07:05.623Z,72.52
2022-08-05T08:09:33.671Z,72.51
2022-08-05T08:12:06.216Z,72.56
2022-08-05T08:14:37.830Z,72.49
2022-08-05T08:17:16.463Z,72.54
2022-08-05T08:20:43.944Z,72.53
2022-08-05T08:22:30.068Z,72.52
2022-08-05T08:24:56.434Z,72.54
2022-08-05T08:27:35.628Z,72.46
2022-08-05T08:30:30.058Z,72.70
2022-08-05T08:33:02.523Z,72.63
2022-08-05T08:35:34.725Z,72.72
2022-08-05T08:38:01.958Z,72.69
2022-08-05T08:40:28.857Z,72.64
2022-08-05T08:42:56.620Z,72.77
2022-08-05T08:45:27.123Z,72.91
2022-08-05T08:48:11.404Z,72.74
2022-08-05T08:51:04.010Z,72.64
2022-08-05T08:53:35.452Z,72.75
2022-08-05T08:56:05.822Z,72.66
2022-08-05T08:58:37.633Z,72.80
2022-08-05T09:01:15.828Z,72.80
2022-08-05T09:03:45.628Z,72.72
2022-08-05T09:06:13.866Z,72.82
2022-08-05T09:08:45.283Z,72.85
2022-08-05T09:11:13.924Z,72.63
2022-08-05T09:14:09.069Z,72.83
2022-08-05T09:16:27.922Z,72.82
2022-08-05T09:18:55.473Z,72.96
2022-08-05T09:22:31.218Z,72.66
2022-08-05T09:24:10.221Z,72.73
2022-08-05T09:26:37.071Z,72.74
2022-08-05T09:29:05.820Z,72.80
2022-08-05T09:32:41.866Z,72.64
2022-08-05T09:34:22.368Z,72.44
2022-08-05T09:36:56.412Z,72.56
2022-08-05T09:39:27.581Z,72.75
2022-08-05T09:42:08.510Z,72.62
2022-08-05T09:44:50.807Z,72.62
2022-08-05T09:47:20.598Z,72.72
2022-08-05T09:50:01.632Z,72.76
2022-08-05T09:52:33.850Z,72.70
2022-08-05T09:55:06.330Z,72.77
2022-08-05T09:57:48.279Z,72.85
2022-08-05T10:00:16.176Z,72.84
2022-08-05T10:02:47.232Z,73.07
2022-08-05T10:05:24.457Z,72.69
2022-08-05T10:08:34.840Z,72.95
2022-08-05T10:10:44.281Z,72.97
2022-08-05T10:13:11.541Z,72.90
2022-08-05T10:15:41.693Z,73.08
2022-08-05T10:18:08.782Z,72.97
2022-08-05T10:20:36.745Z,73.13
2022-08-05T10:23:04.506Z,73.00
2022-08-05T10:25:49.196Z,73.19
2022-08-05T10:28:19.621Z,73.11
2022-08-05T10:32:54.222Z,73.19
2022-08-05T10:33:43.476Z,73.18
2022-08-05T10:36:10.708Z,73.10
2022-08-05T10:38:38.021Z,73.18
2022-08-05T10:41:23.482Z,73.32
2022-08-05T10:44:01.630Z,73.48
2022-08-05T10:46:47.010Z,73.33
2022-08-05T10:49:17.677Z,73.26
2022-08-05T10:52:00.112Z,73.11
2022-08-05T10:54:46.847Z,73.37
2022-08-05T10:57:25.093Z,73.52
2022-08-05T11:00:17.872Z,74.12
2022-08-05T11:03:25.120Z,74.55
2022-08-05T11:06:08.466Z,74.87
2022-08-05T11:08:37.970Z,74.87
2022-08-05T11:11:24.427Z,75.50
2022-08-05T11:14:00.603Z,75.39
2022-08-05T11:16:33.747Z,74.98
2022-08-05T11:20:10.754Z,75.16
2022-08-05T11:22:33.144Z,74.92
2022-08-05T11:26:05.736Z,75.08
2022-08-05T11:28:16.996Z,75.19
2022-08-05T11:30:58.783Z,75.26
2022-08-05T11:33:25.775Z,75.25
2022-08-05T11:36:11.223Z,74.93
2022-08-05T11:38:46.039Z,75.01
2022-08-05T11:41:54.640Z,75.09
2022-08-05T11:44:12.407Z,75.32
2022-08-05T11:46:58.404Z,75.13
2022-08-05T11:49:36.379Z,75.28
2022-08-05T11:52:11.271Z,75.51
2022-08-05T11:54:40.388Z,75.52
2022-08-05T11:57:25.003Z,75.47
2022-08-05T11:59:53.684Z,75.46
2022-08-05T12:02:31.963Z,75.40
2022-08-05T12:05:07.374Z,75.57
2022-08-05T12:08:09.591Z,75.89
2022-08-05T12:10:23.133Z,75.78
2022-08-05T12:12:59.471Z,75.63
2022-08-05T12:15:35.932Z,75.72
2022-08-05T12:18:10.925Z,75.70
2022-08-05T12:20:38.804Z,75.80
2022-08-05T12:23:12.352Z,75.81
2022-08-05T12:26:05.096Z,75.54
2022-08-05T12:28:34.185Z,75.81
2022-08-05T12:31:02.346Z,75.55
2022-08-05T12:33:36.251Z,75.82
2022-08-05T12:36:03.720Z,75.79
2022-08-05T12:38:35.818Z,75.86
2022-08-05T12:41:03.287Z,75.90
2022-08-05T12:43:32.225Z,75.71
2022-08-05T12:45:58.857Z,75.72
2022-08-05T12:48:27.141Z,75.93
2022-08-05T12:52:10.378Z,75.98
2022-08-05T12:54:16.977Z,75.80
2022-08-05T12:56:51.494Z,75.79
2022-08-05T12:59:27.368Z,75.73
2022-08-05T13:02:03.140Z,75.77
2022-08-05T13:04:34.747Z,75.40
2022-08-05T13:07:16.094Z,75.47
2022-08-05T13:09:50.846Z,75.67
2022-08-05T13:12:28.515Z,75.47
2022-08-05T13:15:06.276Z,75.63
2022-08-05T13:17:41.843Z,75.50
2022-08-05T13:20:10.228Z,75.28
2022-08-05T13:22:38.792Z,75.70
2022-08-05T13:25:19.242Z,75.29
2022-08-05T13:27:50.550Z,75.42
2022-08-05T13:30:34.035Z,75.39
2022-08-05T13:33:03.561Z,75.45
2022-08-05T13:35:42.479Z,75.52
2022-08-05T13:38:14.551Z,75.51
2022-08-05T13:40:49.972Z,75.46
2022-08-05T13:43:21.754Z,75.84
2022-08-05T13:45:48.702Z,75.22
2022-08-05T13:48:57.244Z,75.26
2022-08-05T13:51:11.316Z,75.21
2022-08-05T13:53:48.259Z,75.52
2022-08-05T13:56:18.434Z,75.27
2022-08-05T13:58:52.752Z,75.33
2022-08-05T14:01:21.277Z,75.05
2022-08-05T14:04:12.608Z,75.23
2022-08-05T14:06:39.018Z,75.19
2022-08-05T14:09:14.107Z,74.87
2022-08-05T14:12:04.419Z,74.83
2022-08-05T14:14:33.694Z,74.85
2022-08-05T14:17:00.435Z,74.91
2022-08-05T14:19:27.243Z,74.74
2022-08-05T14:22:09.874Z,74.91
2022-08-05T14:24:39.890Z,74.81
2022-08-05T14:27:18.228Z,74.78
2022-08-05T14:29:45.259Z,74.85
2022-08-05T14:32:26.982Z,74.73
2022-08-05T14:34:54.018Z,74.88
2022-08-05T14:37:45.219Z,74.71
2022-08-05T14:40:14.230Z,74.97
2022-08-05T14:42:43.367Z,74.91
2022-08-05T14:45:10.257Z,74.90
2022-08-05T14:48:05.259Z,74.55
2022-08-05T14:50:25.321Z,74.67
2022-08-05T14:52:56.922Z,74.83
2022-08-05T14:55:25.154Z,74.73
2022-08-05T14:57:54.390Z,74.85
2022-08-05T15:00:27.969Z,74.66
2022-08-05T15:02:56.389Z,74.73
2022-08-05T15:05:29.762Z,74.79
2022-08-05T15:08:11.543Z,74.68
2022-08-05T15:10:43.493Z,74.65
2022-08-05T15:13:12.733Z,74.66
2022-08-05T15:15:55.629Z,74.62
2022-08-05T15:18:22.761Z,74.77
2022-08-05T15:20:49.630Z,74.81
2022-08-05T15:23:17.355Z,74.76
2022-08-05T15:25:52.148Z,74.77
2022-08-05T15:28:19.624Z,74.85
2022-08-05T15:30:53.460Z,74.88
2022-08-05T15:33:53.762Z,74.73
2022-08-05T15:36:16.664Z,74.87
2022-08-05T15:38:44.735Z,74.87
2022-08-05T15:41:21.523Z,74.94
2022-08-05T15:43:50.702Z,74.90
2022-08-05T15:46:19.031Z,74.93
2022-08-05T15:48:52.918Z,74.82
2022-08-05T15:52:03.837Z,74.95
2022-08-05T15:54:15.280Z,74.94
2022-08-05T15:56:42.280Z,75.01
2022-08-05T15:59:09.964Z,75.07
2022-08-05T16:01:53.173Z,74.70
2022-08-05T16:04:20.376Z,74.70
2022-08-05T16:06:51.672Z,74.63
2022-08-05T16:09:18.650Z,74.89
2022-08-05T16:11:52.753Z,74.94
2022-08-05T16:14:19.681Z,74.93
2022-08-05T16:16:47.246Z,74.93
2022-08-05T16:19:25.711Z,74.91
2022-08-05T16:22:03.057Z,74.93
2022-08-05T16:24:40.130Z,75.06
2022-08-05T16:27:07.564Z,74.73
2022-08-05T16:29:37.516Z,74.83
2022-08-05T16:32:05.003Z,74.96
2022-08-05T16:34:32.081Z,74.88
2022-08-05T16:36:58.466Z,75.10
2022-08-05T16:40:04.899Z,75.09
2022-08-05T16:42:14.592Z,74.98
2022-08-05T16:44:44.315Z,75.05
2022-08-05T16:47:28.720Z,74.97
2022-08-05T16:50:02.308Z,75.06
2022-08-05T16:52:32.554Z,74.95
2022-08-05T16:55:00.028Z,75.01
2022-08-05T16:57:30.171Z,75.19
2022-08-05T17:00:14.143Z,75.26
2022-08-05T17:02:52.250Z,75.05
2022-08-05T17:05:19.034Z,75.21
2022-08-05T17:07:53.110Z,75.16
2022-08-05T17:10:21.399Z,75.29
2022-08-05T17:12:54.734Z,75.32
2022-08-05T17:15:21.398Z,75.39
2022-08-05T17:17:54.857Z,75.32
2022-08-05T17:20:21.888Z,75.17
2022-08-05T17:22:52.681Z,75.37
2022-08-05T17:25:34.116Z,75.38
2022-08-05T17:28:07.769Z,75.35
2022-08-05T17:30:50.334Z,75.33
2022-08-05T17:33:19.978Z,75.36
2022-08-05T17:36:07.424Z,75.36
2022-08-05T17:38:33.027Z,75.32
2022-08-05T17:40:59.459Z,75.16
2022-08-05T17:43:46.970Z,75.40
2022-08-05T17:46:12.819Z,75.39
2022-08-05T17:48:40.046Z,75.57
2022-08-05T17:51:09.677Z,75.07
2022-08-05T17:53:36.120Z,75.27
2022-08-05T17:56:04.618Z,75.38
2022-08-05T17:58:32.453Z,75.45
2022-08-05T18:00:59.444Z,75.37
2022-08-05T18:03:56.525Z,75.37
2022-08-05T18:06:15.144Z,75.26
2022-08-05T18:08:45.102Z,75.57
2022-08-05T18:11:24.866Z,75.37
2022-08-05T18:13:59.947Z,75.30
2022-08-05T18:16:26.444Z,75.30
2022-08-05T18:18:52.918Z,75.45
2022-08-05T18:21:23.072Z,75.29
2022-08-05T18:23:53.761Z,75.15
2022-08-05T18:26:21.202Z,75.50
2022-08-05T18:28:54.647Z,75.47
2022-08-05T18:31:23.447Z,75.32
2022-08-05T18:33:51.734Z,75.31
2022-08-05T18:36:19.197Z,75.83
2022-08-05T18:38:45.887Z,75.37
2022-08-05T18:41:56.778Z,75.37
2022-08-05T18:44:06.249Z,75.88
2022-08-05T18:46:34.382Z,75.80
2022-08-05T18:49:20.735Z,75.33
2022-08-05T18:52:08.831Z,75.37
2022-08-05T18:54:35.744Z,75.06
2022-08-05T18:57:02.531Z,75.16
2022-08-05T18:59:43.587Z,75.21
2022-08-05T19:02:28.021Z,75.32
2022-08-05T19:05:02.932Z,75.05
2022-08-05T19:07:46.187Z,74.98
2022-08-05T19:10:13.306Z,75.07
2022-08-05T19:12:40.003Z,74.92
2022-08-05T19:15:10.661Z,75.04
2022-08-05T19:17:59.121Z,74.93
2022-08-05T19:20:36.549Z,74.95
2022-08-05T19:23:03.142Z,74.78
2022-08-05T19:25:43.409Z,74.83
2022-08-05T19:28:10.414Z,74.72
2022-08-05T19:30:36.841Z,74.74
2022-08-05T19:33:04.626Z,74.57
2022-08-05T19:35:56.303Z,74.41
2022-08-05T19:38:24.036Z,74.54
2022-08-05T19:40:53.012Z,74.67
2022-08-05T19:43:31.211Z,74.43
2022-08-05T19:46:06.206Z,74.25
2022-08-05T19:48:43.487Z,74.26
2022-08-05T19:52:05.666Z,74.29
2022-08-05T19:54:04.323Z,74.42
2022-08-05T19:56:34.514Z,74.34
2022-08-05T19:59:51.228Z,74.53
2022-08-05T20:01:47.515Z,74.38
2022-08-05T20:04:14.178Z,74.38
2022-08-05T20:06:46.528Z,74.41
2022-08-05T20:09:13.865Z,74.42
2022-08-05T20:11:40.894Z,74.21
2022-08-05T20:14:17.249Z,74.33
2022-08-05T20:16:49.739Z,74.36
2022-08-05T20:19:16.447Z,74.25
2022-08-05T20:21:43.362Z,74.00
2022-08-05T20:24:11.387Z,74.19
2022-08-05T20:26:38.038Z,74.08
2022-08-05T20:29:04.608Z,73.90
2022-08-05T20:31:43.010Z,73.72
2022-08-05T20:34:17.619Z,73.44
2022-08-05T20:36:44.460Z,73.52
2022-08-05T20:39:13.256Z,73.31
2022-08-05T20:41:43.794Z,73.25
2022-08-05T20:44:19.017Z,73.46
2022-08-05T20:47:00.658Z,73.36
2022-08-05T20:49:27.327Z,73.52
2022-08-05T20:51:54.654Z,72.79
2022-08-05T20:54:21.750Z,72.77
2022-08-05T20:56:48.967Z,72.36
2022-08-05T20:59:19.158Z,72.36
2022-08-05T21:01:46.617Z,72.08
2022-08-05T21:04:13.600Z,72.03
2022-08-05T21:06:45.531Z,71.89
2022-08-05T21:09:12.395Z,71.61
2022-08-05T21:12:07.316Z,71.50
2022-08-05T21:14:27.231Z,71.84
2022-08-05T21:16:53.679Z,71.61
2022-08-05T21:19:20.180Z,71.36
2022-08-05T21:21:50.945Z,71.17
2022-08-05T21:24:19.415Z,71.07
2022-08-05T21:26:53.480Z,71.10
2022-08-05T21:29:26.574Z,71.24
2022-08-05T21:31:58.386Z,70.83
2022-08-05T21:34:24.819Z,71.06
2022-08-05T21:36:51.286Z,70.87
2022-08-05T21:39:27.015Z,70.94
2022-08-05T21:42:02.149Z,70.95
2022-08-05T21:44:29.179Z,70.42
2022-08-05T21:46:58.024Z,70.64
2022-08-05T21:49:48.564Z,71.02
2022-08-05T21:52:28.153Z,70.62
2022-08-05T21:54:55.822Z,71.32
2022-08-05T21:57:42.701Z,71.49
2022-08-05T22:00:11.772Z,71.15
2022-08-05T22:02:38.510Z,71.14
2022-08-05T22:05:05.221Z,71.41
2022-08-05T22:07:39.460Z,71.00
2022-08-05T22:10:18.510Z,71.26
2022-08-05T22:12:53.691Z,71.29
2022-08-05T22:16:00.595Z,71.44
2022-08-05T22:18:08.713Z,71.72
2022-08-05T22:20:38.998Z,71.65
2022-08-05T22:23:25.016Z,71.38
2022-08-05T22:26:29.871Z,71.28
2022-08-05T22:28:56.339Z,70.72
2022-08-05T22:31:22.847Z,70.88
2022-08-05T22:33:57.025Z,71.03
2022-08-05T22:36:25.604Z,71.02
2022-08-05T22:38:52.153Z,70.72
2022-08-05T22:42:05.491Z,70.88
2022-08-05T22:44:07.924Z,70.84
2022-08-05T22:46:39.820Z,70.67
2022-08-05T22:49:07.923Z,70.92
2022-08-05T22:52:06.528Z,71.39
2022-08-05T22:54:25.694Z,71.03
2022-08-05T22:56:54.245Z,71.11
2022-08-05T22:59:48.576Z,71.15
2022-08-05T23:02:08.402Z,71.30
2022-08-05T23:04:35.432Z,71.11
2022-08-05T23:07:02.924Z,71.41
2022-08-05T23:09:57.826Z,71.34
2022-08-05T23:12:17.914Z,71.41
2022-08-05T23:14:44.566Z,71.59
2022-08-05T23:17:34.216Z,71.33
2022-08-05T23:20:04.875Z,71.23
2022-08-05T23:22:31.910Z,71.42
2022-08-05T23:24:59.797Z,71.20
2022-08-05T23:27:28.939Z,71.18
2022-08-05T23:30:10.769Z,71.18
2022-08-05T23:32:37.387Z,70.96
2022-08-05T23:35:07.374Z,71.07
2022-08-05T23:37:34.233Z,71.18
2022-08-05T23:40:07.811Z,70.99
2022-08-05T23:42:37.323Z,71.21
2022-08-05T23:45:05.277Z,71.24
2022-08-05T23:47:48.266Z,71.21
2022-08-05T23:50:17.139Z,71.20
2022-08-05T23:52:50.022Z,71.30
2022-08-05T23:55:17.132Z,71.12
2022-08-05T23:57:43.880Z,71.16
